sensor_id;sensor_type;location;lat;lon;timestamp;P1;durP1;ratioP1;P2;durP2;ratioP2
801;SDS011;383;48.766;9.270;2022-10-16T00:01:33;8.60;;;3.53;;
801;SDS011;383;48.766;9.270;2022-10-16T00:04:01;6.37;;;3.37;;
801;SDS011;383;48.766;9.270;2022-10-16T00:06:28;4.43;;;2.70;;
801;SDS011;383;48.766;9.270;2022-10-16T00:08:58;5.50;;;3.20;;
801;SDS011;383;48.766;9.270;2022-10-16T00:11:27;11.33;;;3.73;;
801;SDS011;383;48.766;9.270;2022-10-16T00:13:58;7.60;;;3.60;;
801;SDS011;383;48.766;9.270;2022-10-16T00:16:27;8.00;;;3.23;;
801;SDS011;383;48.766;9.270;2022-10-16T00:18:54;4.03;;;2.60;;
801;SDS011;383;48.766;9.270;2022-10-16T00:21:23;6.03;;;2.93;;
801;SDS011;383;48.766;9.270;2022-10-16T00:23:51;9.73;;;2.50;;
801;SDS011;383;48.766;9.270;2022-10-16T00:26:20;4.77;;;2.83;;
801;SDS011;383;48.766;9.270;2022-10-16T00:28:47;15.93;;;4.63;;
801;SDS011;383;48.766;9.270;2022-10-16T00:31:14;7.67;;;2.80;;
801;SDS011;383;48.766;9.270;2022-10-16T00:33:42;5.40;;;2.83;;
801;SDS011;383;48.766;9.270;2022-10-16T00:36:11;10.60;;;3.20;;
801;SDS011;383;48.766;9.270;2022-10-16T00:38:40;7.67;;;3.27;;
801;SDS011;383;48.766;9.270;2022-10-16T00:41:07;8.20;;;3.13;;
801;SDS011;383;48.766;9.270;2022-10-16T00:43:38;4.50;;;3.60;;
801;SDS011;383;48.766;9.270;2022-10-16T00:46:09;11.13;;;3.60;;
801;SDS011;383;48.766;9.270;2022-10-16T00:48:40;7.20;;;2.87;;
801;SDS011;383;48.766;9.270;2022-10-16T00:51:11;4.27;;;2.93;;
801;SDS011;383;48.766;9.270;2022-10-16T00:53:38;4.47;;;3.50;;
801;SDS011;383;48.766;9.270;2022-10-16T00:56:05;8.87;;;2.70;;
801;SDS011;383;48.766;9.270;2022-10-16T00:58:32;8.27;;;3.17;;
801;SDS011;383;48.766;9.270;2022-10-16T01:01:00;4.87;;;2.63;;
801;SDS011;383;48.766;9.270;2022-10-16T01:03:27;4.30;;;3.17;;
801;SDS011;383;48.766;9.270;2022-10-16T01:06:07;4.60;;;3.17;;
801;SDS011;383;48.766;9.270;2022-10-16T01:08:45;3.57;;;2.70;;
801;SDS011;383;48.766;9.270;2022-10-16T01:11:25;3.67;;;2.60;;
801;SDS011;383;48.766;9.270;2022-10-16T01:13:57;6.40;;;3.10;;
801;SDS011;383;48.766;9.270;2022-10-16T01:16:31;5.10;;;3.03;;
801;SDS011;383;48.766;9.270;2022-10-16T01:19:05;6.50;;;2.73;;
801;SDS011;383;48.766;9.270;2022-10-16T01:21:38;8.73;;;2.40;;
801;SDS011;383;48.766;9.270;2022-10-16T01:24:09;6.30;;;2.53;;
801;SDS011;383;48.766;9.270;2022-10-16T01:26:49;5.70;;;2.00;;
801;SDS011;383;48.766;9.270;2022-10-16T01:29:36;9.70;;;2.90;;
801;SDS011;383;48.766;9.270;2022-10-16T01:32:09;7.33;;;2.90;;
801;SDS011;383;48.766;9.270;2022-10-16T01:34:50;5.30;;;2.70;;
801;SDS011;383;48.766;9.270;2022-10-16T01:37:25;7.50;;;2.80;;
801;SDS011;383;48.766;9.270;2022-10-16T01:39:58;4.17;;;2.73;;
801;SDS011;383;48.766;9.270;2022-10-16T01:42:31;7.60;;;2.93;;
801;SDS011;383;48.766;9.270;2022-10-16T01:45:01;3.90;;;2.20;;
801;SDS011;383;48.766;9.270;2022-10-16T01:47:31;3.87;;;2.90;;
801;SDS011;383;48.766;9.270;2022-10-16T01:49:59;5.60;;;2.50;;
801;SDS011;383;48.766;9.270;2022-10-16T01:52:29;3.20;;;2.70;;
801;SDS011;383;48.766;9.270;2022-10-16T01:54:59;7.90;;;2.83;;
801;SDS011;383;48.766;9.270;2022-10-16T01:57:28;6.40;;;2.80;;
801;SDS011;383;48.766;9.270;2022-10-16T02:00:00;13.37;;;3.57;;
801;SDS011;383;48.766;9.270;2022-10-16T02:02:31;5.30;;;2.80;;
801;SDS011;383;48.766;9.270;2022-10-16T02:04:59;9.57;;;3.67;;
801;SDS011;383;48.766;9.270;2022-10-16T02:07:31;11.17;;;3.17;;
801;SDS011;383;48.766;9.270;2022-10-16T02:09:59;5.47;;;3.00;;
801;SDS011;383;48.766;9.270;2022-10-16T02:12:26;5.00;;;2.73;;
801;SDS011;383;48.766;9.270;2022-10-16T02:14:56;5.40;;;2.70;;
801;SDS011;383;48.766;9.270;2022-10-16T02:17:23;4.63;;;3.07;;
801;SDS011;383;48.766;9.270;2022-10-16T02:19:51;6.43;;;3.10;;
801;SDS011;383;48.766;9.270;2022-10-16T02:22:21;5.60;;;2.80;;
801;SDS011;383;48.766;9.270;2022-10-16T02:24:53;10.13;;;3.93;;
801;SDS011;383;48.766;9.270;2022-10-16T02:27:24;6.77;;;3.33;;
801;SDS011;383;48.766;9.270;2022-10-16T02:29:59;7.23;;;3.10;;
801;SDS011;383;48.766;9.270;2022-10-16T02:32:32;9.10;;;2.80;;
801;SDS011;383;48.766;9.270;2022-10-16T02:35:01;5.17;;;2.60;;
801;SDS011;383;48.766;9.270;2022-10-16T02:37:30;7.63;;;2.97;;
801;SDS011;383;48.766;9.270;2022-10-16T02:39:58;5.50;;;3.10;;
801;SDS011;383;48.766;9.270;2022-10-16T02:42:28;6.37;;;3.53;;
801;SDS011;383;48.766;9.270;2022-10-16T02:45:00;4.83;;;2.70;;
801;SDS011;383;48.766;9.270;2022-10-16T02:47:26;6.13;;;2.90;;
801;SDS011;383;48.766;9.270;2022-10-16T02:49:53;5.80;;;3.37;;
801;SDS011;383;48.766;9.270;2022-10-16T02:52:20;10.07;;;3.47;;
801;SDS011;383;48.766;9.270;2022-10-16T02:54:46;3.73;;;2.90;;
801;SDS011;383;48.766;9.270;2022-10-16T02:57:13;4.47;;;2.50;;
801;SDS011;383;48.766;9.270;2022-10-16T02:59:40;6.50;;;3.40;;
801;SDS011;383;48.766;9.270;2022-10-16T03:02:08;8.47;;;2.50;;
801;SDS011;383;48.766;9.270;2022-10-16T03:04:35;6.67;;;2.90;;
801;SDS011;383;48.766;9.270;2022-10-16T03:07:02;8.07;;;3.17;;
801;SDS011;383;48.766;9.270;2022-10-16T03:09:29;8.13;;;2.67;;
801;SDS011;383;48.766;9.270;2022-10-16T03:11:56;10.10;;;2.87;;
801;SDS011;383;48.766;9.270;2022-10-16T03:14:23;5.30;;;2.40;;
801;SDS011;383;48.766;9.270;2022-10-16T03:16:49;9.33;;;2.83;;
801;SDS011;383;48.766;9.270;2022-10-16T03:19:17;5.20;;;2.87;;
801;SDS011;383;48.766;9.270;2022-10-16T03:21:45;4.30;;;2.40;;
801;SDS011;383;48.766;9.270;2022-10-16T03:24:11;6.70;;;2.20;;
801;SDS011;383;48.766;9.270;2022-10-16T03:26:38;4.93;;;2.90;;
801;SDS011;383;48.766;9.270;2022-10-16T03:29:05;6.20;;;3.00;;
801;SDS011;383;48.766;9.270;2022-10-16T03:31:32;3.90;;;2.30;;
801;SDS011;383;48.766;9.270;2022-10-16T03:33:59;5.20;;;3.50;;
801;SDS011;383;48.766;9.270;2022-10-16T03:36:27;5.17;;;3.00;;
801;SDS011;383;48.766;9.270;2022-10-16T03:38:53;5.23;;;2.77;;
801;SDS011;383;48.766;9.270;2022-10-16T03:41:20;3.50;;;2.87;;
801;SDS011;383;48.766;9.270;2022-10-16T03:43:47;6.73;;;2.93;;
801;SDS011;383;48.766;9.270;2022-10-16T03:46:13;6.03;;;2.40;;
801;SDS011;383;48.766;9.270;2022-10-16T03:48:40;5.17;;;2.73;;
801;SDS011;383;48.766;9.270;2022-10-16T03:51:07;4.17;;;2.17;;
801;SDS011;383;48.766;9.270;2022-10-16T03:53:35;3.97;;;2.00;;
801;SDS011;383;48.766;9.270;2022-10-16T03:56:02;5.53;;;2.50;;
801;SDS011;383;48.766;9.270;2022-10-16T03:58:28;6.00;;;2.43;;
801;SDS011;383;48.766;9.270;2022-10-16T04:00:55;4.40;;;2.17;;
801;SDS011;383;48.766;9.270;2022-10-16T04:03:22;2.67;;;2.13;;
801;SDS011;383;48.766;9.270;2022-10-16T04:05:48;2.70;;;2.50;;
801;SDS011;383;48.766;9.270;2022-10-16T04:08:15;3.17;;;2.50;;
801;SDS011;383;48.766;9.270;2022-10-16T04:10:47;2.93;;;2.27;;
801;SDS011;383;48.766;9.270;2022-10-16T04:13:14;8.73;;;2.67;;
801;SDS011;383;48.766;9.270;2022-10-16T04:15:41;5.97;;;2.20;;
801;SDS011;383;48.766;9.270;2022-10-16T04:18:07;5.33;;;2.90;;
801;SDS011;383;48.766;9.270;2022-10-16T04:20:34;4.60;;;2.63;;
801;SDS011;383;48.766;9.270;2022-10-16T04:23:01;4.30;;;2.43;;
801;SDS011;383;48.766;9.270;2022-10-16T04:25:30;3.50;;;2.40;;
801;SDS011;383;48.766;9.270;2022-10-16T04:27:58;3.17;;;2.40;;
801;SDS011;383;48.766;9.270;2022-10-16T04:30:25;3.10;;;2.40;;
801;SDS011;383;48.766;9.270;2022-10-16T04:32:52;3.50;;;2.33;;
801;SDS011;383;48.766;9.270;2022-10-16T04:35:19;6.70;;;2.87;;
801;SDS011;383;48.766;9.270;2022-10-16T04:37:47;3.60;;;2.47;;
801;SDS011;383;48.766;9.270;2022-10-16T04:40:14;4.60;;;2.43;;
801;SDS011;383;48.766;9.270;2022-10-16T04:42:41;5.83;;;2.33;;
801;SDS011;383;48.766;9.270;2022-10-16T04:45:09;2.40;;;2.07;;
801;SDS011;383;48.766;9.270;2022-10-16T04:47:36;3.20;;;2.10;;
801;SDS011;383;48.766;9.270;2022-10-16T04:50:03;8.80;;;3.10;;
801;SDS011;383;48.766;9.270;2022-10-16T04:52:31;4.53;;;2.60;;
801;SDS011;383;48.766;9.270;2022-10-16T04:54:58;7.13;;;2.70;;
801;SDS011;383;48.766;9.270;2022-10-16T04:57:27;6.37;;;2.90;;
801;SDS011;383;48.766;9.270;2022-10-16T04:59:54;4.83;;;2.90;;
801;SDS011;383;48.766;9.270;2022-10-16T05:02:22;5.03;;;2.40;;
801;SDS011;383;48.766;9.270;2022-10-16T05:04:49;4.30;;;2.50;;
801;SDS011;383;48.766;9.270;2022-10-16T05:07:15;7.70;;;2.53;;
801;SDS011;383;48.766;9.270;2022-10-16T05:09:42;3.10;;;2.07;;
801;SDS011;383;48.766;9.270;2022-10-16T05:12:09;3.90;;;2.47;;
801;SDS011;383;48.766;9.270;2022-10-16T05:14:35;7.33;;;2.97;;
801;SDS011;383;48.766;9.270;2022-10-16T05:17:02;11.20;;;2.50;;
801;SDS011;383;48.766;9.270;2022-10-16T05:19:30;5.33;;;2.50;;
801;SDS011;383;48.766;9.270;2022-10-16T05:21:57;5.40;;;3.20;;
801;SDS011;383;48.766;9.270;2022-10-16T05:24:24;3.37;;;2.50;;
801;SDS011;383;48.766;9.270;2022-10-16T05:26:51;3.40;;;2.33;;
801;SDS011;383;48.766;9.270;2022-10-16T05:29:17;6.23;;;2.23;;
801;SDS011;383;48.766;9.270;2022-10-16T05:31:44;5.13;;;2.87;;
801;SDS011;383;48.766;9.270;2022-10-16T05:34:11;6.27;;;2.87;;
801;SDS011;383;48.766;9.270;2022-10-16T05:36:39;5.20;;;3.50;;
801;SDS011;383;48.766;9.270;2022-10-16T05:39:06;5.90;;;3.70;;
801;SDS011;383;48.766;9.270;2022-10-16T05:41:33;4.80;;;2.80;;
801;SDS011;383;48.766;9.270;2022-10-16T05:43:59;6.33;;;3.57;;
801;SDS011;383;48.766;9.270;2022-10-16T05:46:26;14.47;;;3.37;;
801;SDS011;383;48.766;9.270;2022-10-16T05:48:53;5.53;;;2.50;;
801;SDS011;383;48.766;9.270;2022-10-16T05:51:22;2.90;;;2.30;;
801;SDS011;383;48.766;9.270;2022-10-16T05:53:50;4.70;;;3.17;;
801;SDS011;383;48.766;9.270;2022-10-16T05:56:18;10.77;;;3.10;;
801;SDS011;383;48.766;9.270;2022-10-16T05:58:45;5.63;;;2.33;;
801;SDS011;383;48.766;9.270;2022-10-16T06:01:13;7.83;;;3.23;;
801;SDS011;383;48.766;9.270;2022-10-16T06:03:40;4.50;;;3.37;;
801;SDS011;383;48.766;9.270;2022-10-16T06:06:08;10.93;;;3.10;;
801;SDS011;383;48.766;9.270;2022-10-16T06:08:36;7.63;;;3.30;;
801;SDS011;383;48.766;9.270;2022-10-16T06:11:05;5.87;;;3.27;;
801;SDS011;383;48.766;9.270;2022-10-16T06:13:33;5.87;;;2.53;;
801;SDS011;383;48.766;9.270;2022-10-16T06:16:00;12.63;;;3.37;;
801;SDS011;383;48.766;9.270;2022-10-16T06:18:29;3.33;;;2.47;;
801;SDS011;383;48.766;9.270;2022-10-16T06:20:56;5.63;;;2.90;;
801;SDS011;383;48.766;9.270;2022-10-16T06:23:23;4.07;;;2.80;;
801;SDS011;383;48.766;9.270;2022-10-16T06:25:50;5.70;;;3.30;;
801;SDS011;383;48.766;9.270;2022-10-16T06:28:18;6.43;;;3.27;;
801;SDS011;383;48.766;9.270;2022-10-16T06:30:45;5.33;;;3.43;;
801;SDS011;383;48.766;9.270;2022-10-16T06:33:12;3.90;;;3.00;;
801;SDS011;383;48.766;9.270;2022-10-16T06:35:39;9.13;;;3.23;;
801;SDS011;383;48.766;9.270;2022-10-16T06:38:05;6.07;;;3.10;;
801;SDS011;383;48.766;9.270;2022-10-16T06:40:32;4.13;;;2.70;;
801;SDS011;383;48.766;9.270;2022-10-16T06:42:59;7.87;;;2.93;;
801;SDS011;383;48.766;9.270;2022-10-16T06:45:27;4.00;;;2.63;;
801;SDS011;383;48.766;9.270;2022-10-16T06:47:54;4.43;;;2.80;;
801;SDS011;383;48.766;9.270;2022-10-16T06:50:20;4.40;;;3.10;;
801;SDS011;383;48.766;9.270;2022-10-16T06:52:50;12.33;;;3.13;;
801;SDS011;383;48.766;9.270;2022-10-16T06:55:16;5.80;;;3.17;;
801;SDS011;383;48.766;9.270;2022-10-16T06:57:43;10.50;;;3.60;;
801;SDS011;383;48.766;9.270;2022-10-16T07:00:13;7.70;;;3.20;;
801;SDS011;383;48.766;9.270;2022-10-16T07:02:41;7.20;;;3.10;;
801;SDS011;383;48.766;9.270;2022-10-16T07:05:08;9.73;;;3.73;;
801;SDS011;383;48.766;9.270;2022-10-16T07:07:35;9.83;;;3.90;;
801;SDS011;383;48.766;9.270;2022-10-16T07:10:01;6.90;;;3.63;;
801;SDS011;383;48.766;9.270;2022-10-16T07:12:29;4.87;;;3.40;;
801;SDS011;383;48.766;9.270;2022-10-16T07:14:55;7.40;;;3.73;;
801;SDS011;383;48.766;9.270;2022-10-16T07:17:22;11.20;;;3.87;;
801;SDS011;383;48.766;9.270;2022-10-16T07:19:50;7.70;;;3.03;;
801;SDS011;383;48.766;9.270;2022-10-16T07:22:18;3.17;;;2.53;;
801;SDS011;383;48.766;9.270;2022-10-16T07:24:45;8.57;;;2.63;;
801;SDS011;383;48.766;9.270;2022-10-16T07:27:11;2.30;;;2.07;;
801;SDS011;383;48.766;9.270;2022-10-16T07:29:41;3.10;;;2.70;;
801;SDS011;383;48.766;9.270;2022-10-16T07:32:08;4.50;;;2.20;;
801;SDS011;383;48.766;9.270;2022-10-16T07:34:34;5.37;;;2.33;;
801;SDS011;383;48.766;9.270;2022-10-16T07:37:03;3.53;;;2.10;;
801;SDS011;383;48.766;9.270;2022-10-16T07:39:29;4.07;;;2.30;;
801;SDS011;383;48.766;9.270;2022-10-16T07:41:56;3.07;;;2.00;;
801;SDS011;383;48.766;9.270;2022-10-16T07:44:23;6.00;;;2.10;;
801;SDS011;383;48.766;9.270;2022-10-16T07:46:50;6.00;;;2.33;;
801;SDS011;383;48.766;9.270;2022-10-16T07:49:17;6.57;;;3.20;;
801;SDS011;383;48.766;9.270;2022-10-16T07:51:47;9.20;;;2.97;;
801;SDS011;383;48.766;9.270;2022-10-16T07:54:15;1.83;;;1.83;;
801;SDS011;383;48.766;9.270;2022-10-16T07:56:41;1.67;;;1.40;;
801;SDS011;383;48.766;9.270;2022-10-16T07:59:08;3.17;;;1.90;;
801;SDS011;383;48.766;9.270;2022-10-16T08:01:35;2.23;;;1.90;;
801;SDS011;383;48.766;9.270;2022-10-16T08:04:02;3.10;;;2.10;;
801;SDS011;383;48.766;9.270;2022-10-16T08:06:29;13.90;;;7.70;;
801;SDS011;383;48.766;9.270;2022-10-16T08:09:02;19.50;;;10.00;;
801;SDS011;383;48.766;9.270;2022-10-16T08:11:30;48.50;;;19.17;;
801;SDS011;383;48.766;9.270;2022-10-16T08:13:57;79.10;;;25.53;;
801;SDS011;383;48.766;9.270;2022-10-16T08:16:23;92.73;;;30.53;;
801;SDS011;383;48.766;9.270;2022-10-16T08:18:50;85.40;;;37.07;;
801;SDS011;383;48.766;9.270;2022-10-16T08:21:17;25.53;;;16.97;;
801;SDS011;383;48.766;9.270;2022-10-16T08:23:47;19.20;;;11.23;;
801;SDS011;383;48.766;9.270;2022-10-16T08:26:14;10.97;;;5.93;;
801;SDS011;383;48.766;9.270;2022-10-16T08:28:42;3.40;;;2.50;;
801;SDS011;383;48.766;9.270;2022-10-16T08:31:10;3.80;;;2.37;;
801;SDS011;383;48.766;9.270;2022-10-16T08:33:38;3.50;;;2.00;;
801;SDS011;383;48.766;9.270;2022-10-16T08:36:07;5.53;;;2.47;;
801;SDS011;383;48.766;9.270;2022-10-16T08:38:35;4.40;;;1.80;;
801;SDS011;383;48.766;9.270;2022-10-16T08:41:09;2.10;;;1.63;;
801;SDS011;383;48.766;9.270;2022-10-16T08:44:01;3.20;;;2.03;;
801;SDS011;383;48.766;9.270;2022-10-16T08:46:40;3.40;;;1.97;;
801;SDS011;383;48.766;9.270;2022-10-16T08:49:12;10.63;;;2.43;;
801;SDS011;383;48.766;9.270;2022-10-16T08:51:40;6.73;;;1.90;;
801;SDS011;383;48.766;9.270;2022-10-16T08:54:11;3.37;;;1.87;;
801;SDS011;383;48.766;9.270;2022-10-16T08:56:49;6.40;;;1.90;;
801;SDS011;383;48.766;9.270;2022-10-16T08:59:17;4.87;;;2.77;;
801;SDS011;383;48.766;9.270;2022-10-16T09:01:45;3.97;;;1.90;;
801;SDS011;383;48.766;9.270;2022-10-16T09:04:24;5.47;;;1.70;;
801;SDS011;383;48.766;9.270;2022-10-16T09:07:13;2.50;;;1.90;;
801;SDS011;383;48.766;9.270;2022-10-16T09:09:54;4.80;;;2.00;;
801;SDS011;383;48.766;9.270;2022-10-16T09:12:33;3.93;;;1.90;;
801;SDS011;383;48.766;9.270;2022-10-16T09:15:11;5.10;;;1.57;;
801;SDS011;383;48.766;9.270;2022-10-16T09:17:46;3.43;;;2.07;;
801;SDS011;383;48.766;9.270;2022-10-16T09:20:30;7.60;;;1.50;;
801;SDS011;383;48.766;9.270;2022-10-16T09:23:08;1.87;;;1.27;;
801;SDS011;383;48.766;9.270;2022-10-16T09:25:42;1.53;;;1.40;;
801;SDS011;383;48.766;9.270;2022-10-16T09:28:10;2.73;;;1.50;;
801;SDS011;383;48.766;9.270;2022-10-16T09:30:38;2.43;;;2.17;;
801;SDS011;383;48.766;9.270;2022-10-16T09:33:05;4.43;;;1.97;;
801;SDS011;383;48.766;9.270;2022-10-16T09:35:35;1.90;;;1.77;;
801;SDS011;383;48.766;9.270;2022-10-16T09:38:04;6.70;;;1.77;;
801;SDS011;383;48.766;9.270;2022-10-16T09:40:32;3.53;;;1.93;;
801;SDS011;383;48.766;9.270;2022-10-16T09:43:02;6.07;;;2.10;;
801;SDS011;383;48.766;9.270;2022-10-16T09:45:40;7.17;;;2.03;;
801;SDS011;383;48.766;9.270;2022-10-16T09:48:10;2.00;;;1.93;;
801;SDS011;383;48.766;9.270;2022-10-16T09:50:38;4.53;;;2.60;;
801;SDS011;383;48.766;9.270;2022-10-16T09:53:08;13.50;;;3.40;;
801;SDS011;383;48.766;9.270;2022-10-16T09:55:47;3.70;;;2.20;;
801;SDS011;383;48.766;9.270;2022-10-16T09:58:15;4.37;;;2.27;;
801;SDS011;383;48.766;9.270;2022-10-16T10:00:47;5.43;;;2.33;;
801;SDS011;383;48.766;9.270;2022-10-16T10:03:17;3.80;;;2.30;;
801;SDS011;383;48.766;9.270;2022-10-16T10:05:59;5.57;;;2.77;;
801;SDS011;383;48.766;9.270;2022-10-16T10:08:30;16.70;;;7.30;;
801;SDS011;383;48.766;9.270;2022-10-16T10:10:57;7.33;;;3.00;;
801;SDS011;383;48.766;9.270;2022-10-16T10:13:24;3.47;;;1.93;;
801;SDS011;383;48.766;9.270;2022-10-16T10:15:53;6.17;;;2.03;;
801;SDS011;383;48.766;9.270;2022-10-16T10:18:20;2.40;;;1.73;;
801;SDS011;383;48.766;9.270;2022-10-16T10:20:56;5.60;;;3.07;;
801;SDS011;383;48.766;9.270;2022-10-16T10:23:25;4.40;;;3.10;;
801;SDS011;383;48.766;9.270;2022-10-16T10:25:53;4.40;;;2.00;;
801;SDS011;383;48.766;9.270;2022-10-16T10:28:38;4.20;;;1.87;;
801;SDS011;383;48.766;9.270;2022-10-16T10:31:23;2.80;;;1.83;;
801;SDS011;383;48.766;9.270;2022-10-16T10:33:54;3.97;;;2.10;;
801;SDS011;383;48.766;9.270;2022-10-16T10:36:31;4.73;;;1.93;;
801;SDS011;383;48.766;9.270;2022-10-16T10:39:00;10.00;;;2.40;;
801;SDS011;383;48.766;9.270;2022-10-16T10:44:26;2.70;;;2.20;;
801;SDS011;383;48.766;9.270;2022-10-16T10:47:19;4.53;;;2.10;;
801;SDS011;383;48.766;9.270;2022-10-16T10:49:55;4.73;;;2.17;;
801;SDS011;383;48.766;9.270;2022-10-16T10:52:34;6.70;;;2.57;;
801;SDS011;383;48.766;9.270;2022-10-16T10:55:16;5.30;;;2.40;;
801;SDS011;383;48.766;9.270;2022-10-16T10:57:57;4.50;;;2.03;;
801;SDS011;383;48.766;9.270;2022-10-16T11:00:45;5.90;;;1.80;;
801;SDS011;383;48.766;9.270;2022-10-16T11:03:27;6.13;;;1.97;;
801;SDS011;383;48.766;9.270;2022-10-16T11:06:07;4.53;;;1.50;;
801;SDS011;383;48.766;9.270;2022-10-16T11:08:39;4.83;;;1.73;;
801;SDS011;383;48.766;9.270;2022-10-16T11:11:11;1.60;;;1.53;;
801;SDS011;383;48.766;9.270;2022-10-16T11:13:44;2.50;;;1.50;;
801;SDS011;383;48.766;9.270;2022-10-16T11:16:19;5.37;;;2.00;;
801;SDS011;383;48.766;9.270;2022-10-16T11:18:55;2.27;;;1.70;;
801;SDS011;383;48.766;9.270;2022-10-16T11:21:27;3.90;;;2.17;;
801;SDS011;383;48.766;9.270;2022-10-16T11:24:10;6.70;;;3.37;;
801;SDS011;383;48.766;9.270;2022-10-16T11:26:43;3.30;;;2.10;;
801;SDS011;383;48.766;9.270;2022-10-16T11:29:13;5.63;;;1.60;;
801;SDS011;383;48.766;9.270;2022-10-16T11:31:46;3.53;;;2.07;;
801;SDS011;383;48.766;9.270;2022-10-16T11:34:21;2.03;;;1.70;;
801;SDS011;383;48.766;9.270;2022-10-16T11:36:51;4.73;;;1.83;;
801;SDS011;383;48.766;9.270;2022-10-16T11:39:23;3.97;;;1.73;;
801;SDS011;383;48.766;9.270;2022-10-16T11:41:53;4.90;;;1.53;;
801;SDS011;383;48.766;9.270;2022-10-16T11:47:13;1.73;;;1.70;;
801;SDS011;383;48.766;9.270;2022-10-16T11:49:52;8.50;;;2.33;;
801;SDS011;383;48.766;9.270;2022-10-16T11:52:25;1.73;;;1.50;;
801;SDS011;383;48.766;9.270;2022-10-16T11:54:58;3.37;;;1.33;;
801;SDS011;383;48.766;9.270;2022-10-16T11:57:31;4.47;;;2.30;;
801;SDS011;383;48.766;9.270;2022-10-16T12:00:02;3.47;;;1.90;;
801;SDS011;383;48.766;9.270;2022-10-16T12:02:40;5.77;;;1.77;;
801;SDS011;383;48.766;9.270;2022-10-16T12:05:23;2.77;;;1.63;;
801;SDS011;383;48.766;9.270;2022-10-16T12:08:01;4.67;;;1.87;;
801;SDS011;383;48.766;9.270;2022-10-16T12:10:36;2.90;;;1.93;;
801;SDS011;383;48.766;9.270;2022-10-16T12:13:04;1.77;;;1.70;;
801;SDS011;383;48.766;9.270;2022-10-16T12:15:32;5.23;;;2.17;;
801;SDS011;383;48.766;9.270;2022-10-16T12:17:59;3.00;;;1.47;;
801;SDS011;383;48.766;9.270;2022-10-16T12:20:28;3.60;;;2.00;;
801;SDS011;383;48.766;9.270;2022-10-16T12:22:58;3.10;;;2.07;;
801;SDS011;383;48.766;9.270;2022-10-16T12:25:27;3.40;;;1.60;;
801;SDS011;383;48.766;9.270;2022-10-16T12:27:59;1.97;;;1.83;;
801;SDS011;383;48.766;9.270;2022-10-16T12:30:28;4.50;;;1.70;;
801;SDS011;383;48.766;9.270;2022-10-16T12:32:57;2.07;;;1.70;;
801;SDS011;383;48.766;9.270;2022-10-16T12:35:26;1.40;;;1.37;;
801;SDS011;383;48.766;9.270;2022-10-16T12:38:07;3.13;;;1.90;;
801;SDS011;383;48.766;9.270;2022-10-16T12:40:41;1.83;;;1.60;;
801;SDS011;383;48.766;9.270;2022-10-16T12:46:20;1.60;;;1.30;;
801;SDS011;383;48.766;9.270;2022-10-16T12:48:50;3.60;;;1.70;;
801;SDS011;383;48.766;9.270;2022-10-16T12:51:25;21.13;;;2.90;;
801;SDS011;383;48.766;9.270;2022-10-16T12:54:02;2.27;;;1.40;;
801;SDS011;383;48.766;9.270;2022-10-16T12:56:34;4.20;;;1.67;;
801;SDS011;383;48.766;9.270;2022-10-16T12:59:15;9.10;;;2.40;;
801;SDS011;383;48.766;9.270;2022-10-16T13:01:57;2.60;;;1.80;;
801;SDS011;383;48.766;9.270;2022-10-16T13:04:47;4.30;;;1.60;;
801;SDS011;383;48.766;9.270;2022-10-16T13:07:35;7.70;;;2.47;;
801;SDS011;383;48.766;9.270;2022-10-16T13:10:15;1.80;;;1.50;;
801;SDS011;383;48.766;9.270;2022-10-16T13:13:02;5.73;;;2.03;;
801;SDS011;383;48.766;9.270;2022-10-16T13:15:41;2.40;;;1.77;;
801;SDS011;383;48.766;9.270;2022-10-16T13:18:21;2.20;;;1.97;;
801;SDS011;383;48.766;9.270;2022-10-16T13:20:56;4.20;;;1.80;;
801;SDS011;383;48.766;9.270;2022-10-16T13:23:40;4.23;;;2.67;;
801;SDS011;383;48.766;9.270;2022-10-16T13:26:16;2.53;;;1.73;;
801;SDS011;383;48.766;9.270;2022-10-16T13:28:51;3.60;;;1.80;;
801;SDS011;383;48.766;9.270;2022-10-16T13:31:19;5.10;;;2.40;;
801;SDS011;383;48.766;9.270;2022-10-16T13:33:49;1.87;;;1.60;;
801;SDS011;383;48.766;9.270;2022-10-16T13:36:20;1.73;;;1.50;;
801;SDS011;383;48.766;9.270;2022-10-16T13:38:50;3.30;;;2.13;;
801;SDS011;383;48.766;9.270;2022-10-16T13:41:27;3.07;;;2.37;;
801;SDS011;383;48.766;9.270;2022-10-16T13:43:53;3.50;;;1.90;;
801;SDS011;383;48.766;9.270;2022-10-16T13:46:22;3.87;;;1.63;;
801;SDS011;383;48.766;9.270;2022-10-16T13:48:56;8.13;;;1.90;;
801;SDS011;383;48.766;9.270;2022-10-16T13:51:24;3.37;;;2.30;;
801;SDS011;383;48.766;9.270;2022-10-16T13:53:54;3.50;;;2.43;;
801;SDS011;383;48.766;9.270;2022-10-16T13:56:22;10.50;;;5.27;;
801;SDS011;383;48.766;9.270;2022-10-16T13:58:58;5.43;;;2.70;;
801;SDS011;383;48.766;9.270;2022-10-16T14:01:26;3.87;;;2.30;;
801;SDS011;383;48.766;9.270;2022-10-16T14:03:59;2.43;;;1.70;;
801;SDS011;383;48.766;9.270;2022-10-16T14:06:28;2.27;;;2.00;;
801;SDS011;383;48.766;9.270;2022-10-16T14:09:00;2.90;;;2.03;;
801;SDS011;383;48.766;9.270;2022-10-16T14:11:31;2.13;;;1.60;;
801;SDS011;383;48.766;9.270;2022-10-16T14:13:59;5.87;;;3.30;;
801;SDS011;383;48.766;9.270;2022-10-16T14:16:28;7.77;;;3.20;;
801;SDS011;383;48.766;9.270;2022-10-16T14:18:58;8.97;;;3.67;;
801;SDS011;383;48.766;9.270;2022-10-16T14:21:26;8.00;;;4.73;;
801;SDS011;383;48.766;9.270;2022-10-16T14:23:54;8.43;;;3.47;;
801;SDS011;383;48.766;9.270;2022-10-16T14:26:23;3.03;;;2.57;;
801;SDS011;383;48.766;9.270;2022-10-16T14:29:03;4.50;;;3.13;;
801;SDS011;383;48.766;9.270;2022-10-16T14:31:36;5.40;;;2.00;;
801;SDS011;383;48.766;9.270;2022-10-16T14:34:05;3.97;;;2.00;;
801;SDS011;383;48.766;9.270;2022-10-16T14:36:50;3.63;;;2.70;;
801;SDS011;383;48.766;9.270;2022-10-16T14:39:17;6.10;;;3.30;;
801;SDS011;383;48.766;9.270;2022-10-16T14:41:48;9.97;;;3.80;;
801;SDS011;383;48.766;9.270;2022-10-16T14:44:17;3.00;;;2.60;;
801;SDS011;383;48.766;9.270;2022-10-16T14:46:45;5.20;;;2.57;;
801;SDS011;383;48.766;9.270;2022-10-16T14:49:15;4.40;;;2.80;;
801;SDS011;383;48.766;9.270;2022-10-16T14:51:45;6.30;;;2.40;;
801;SDS011;383;48.766;9.270;2022-10-16T14:54:12;5.40;;;2.67;;
801;SDS011;383;48.766;9.270;2022-10-16T14:56:44;6.07;;;3.17;;
801;SDS011;383;48.766;9.270;2022-10-16T14:59:16;8.27;;;3.70;;
801;SDS011;383;48.766;9.270;2022-10-16T15:01:46;10.13;;;4.00;;
801;SDS011;383;48.766;9.270;2022-10-16T15:04:13;4.80;;;2.40;;
801;SDS011;383;48.766;9.270;2022-10-16T15:06:40;4.60;;;2.67;;
801;SDS011;383;48.766;9.270;2022-10-16T15:09:07;5.67;;;2.30;;
801;SDS011;383;48.766;9.270;2022-10-16T15:11:34;1.90;;;1.83;;
801;SDS011;383;48.766;9.270;2022-10-16T15:14:02;7.87;;;2.50;;
801;SDS011;383;48.766;9.270;2022-10-16T15:16:29;3.30;;;2.63;;
801;SDS011;383;48.766;9.270;2022-10-16T15:18:56;7.70;;;3.50;;
801;SDS011;383;48.766;9.270;2022-10-16T15:21:24;4.53;;;2.40;;
801;SDS011;383;48.766;9.270;2022-10-16T15:23:53;3.40;;;1.87;;
801;SDS011;383;48.766;9.270;2022-10-16T15:26:21;10.47;;;2.17;;
801;SDS011;383;48.766;9.270;2022-10-16T15:28:48;3.97;;;1.60;;
801;SDS011;383;48.766;9.270;2022-10-16T15:31:16;14.63;;;6.40;;
801;SDS011;383;48.766;9.270;2022-10-16T15:33:43;11.17;;;3.40;;
801;SDS011;383;48.766;9.270;2022-10-16T15:36:12;2.93;;;2.10;;
801;SDS011;383;48.766;9.270;2022-10-16T15:38:39;3.50;;;2.67;;
801;SDS011;383;48.766;9.270;2022-10-16T15:41:06;5.10;;;2.20;;
801;SDS011;383;48.766;9.270;2022-10-16T15:43:32;4.50;;;2.10;;
801;SDS011;383;48.766;9.270;2022-10-16T15:46:00;5.20;;;2.60;;
801;SDS011;383;48.766;9.270;2022-10-16T15:48:29;7.77;;;2.23;;
801;SDS011;383;48.766;9.270;2022-10-16T15:50:57;7.63;;;3.00;;
801;SDS011;383;48.766;9.270;2022-10-16T15:53:24;4.73;;;2.80;;
801;SDS011;383;48.766;9.270;2022-10-16T15:55:51;3.40;;;1.90;;
801;SDS011;383;48.766;9.270;2022-10-16T15:58:17;5.67;;;2.50;;
801;SDS011;383;48.766;9.270;2022-10-16T16:00:44;12.07;;;2.80;;
801;SDS011;383;48.766;9.270;2022-10-16T16:03:11;3.27;;;2.30;;
801;SDS011;383;48.766;9.270;2022-10-16T16:05:39;4.13;;;2.50;;
801;SDS011;383;48.766;9.270;2022-10-16T16:08:06;9.57;;;2.87;;
801;SDS011;383;48.766;9.270;2022-10-16T16:10:33;3.87;;;2.33;;
801;SDS011;383;48.766;9.270;2022-10-16T16:12:59;9.57;;;3.13;;